Airfield :
LOGIN :

Register | Disclaimer

   EN    FR    IT 

 










Legend :    VFR   Marginal VFR   IFR   Intensive IFR   Very Intensive IFR
Visi :
Ceiling :
>= 8 km
>= 3000ft
5 to 8 km
1000 to 3000 ft
1500m to 5 km
500 to 1000 ft
800 to 1500m
200 to 500 ft
< 800m
< 200 ft
Symbols :   Thunderstorms  Fog  Heavy snow  Heavy precipitations  Wind > 20 kt
SIGMETs :     Misc.  Thunderstorms  Icing  Turbulence  Mountain Waves  Volcanic Ashes







- Airport Elevation : 416 ft
- IATA code : OVD


LEAS - Asturias

CURRENT METAR :
  • 262330Z VRB01KT 9999 FEW052 17/13 Q1018 NOSIG

EXPIRED METARs :
  • 262300Z 00000KT 9999 FEW052 17/14 Q1019 NOSIG
  • 262230Z 21003KT 9999 SCT039 18/14 Q1019 NOSIG
  • 262200Z 00000KT 9999 BKN039 18/15 Q1019 NOSIG
  • 262130Z 21003KT 9999 FEW051 18/15 Q1019 NOSIG
  • 262100Z 20003KT 9999 FEW051 18/15 Q1019 NOSIG

TAF TAF LEAS
Valid from the 26 at 21:00 until the 27 at 21:00 UTC


262000Z 2621/2721 VRB04KT 9999 FEW015 TX22/2714Z TN16/2705Z
TEMPO 2710/2715 01010KT
TEMPO 2714/2721 31010KT BKN010
No reported NOTAMs for that airfield.



MET'MAP, your aeronautical weather chart ! - Copyright ORBIFLY December 2007 - Disclaimer

ORBIFLY MET'MAP TEAM :

Programming & Development : Alexandra Zaïnal
Concept & Development : Baudouin d'Aumeries
Co-Development & Prog : Marc-Olivier Méhu
Technical & hardware support : Manuel Goepfert

Contact : metmap@orbifly.com




SOURCES & CREDITS :

   NOAA